sensor_id;sensor_type;location;lat;lon;timestamp;temperature;humidity
48043;DHT22;33988;47.992;8.820;2023-04-03T00:01:24;13.50;54.60
48043;DHT22;33988;47.992;8.820;2023-04-03T00:03:51;13.40;54.50
48043;DHT22;33988;47.992;8.820;2023-04-03T00:06:24;13.40;54.50
48043;DHT22;33988;47.992;8.820;2023-04-03T00:08:52;13.40;54.40
48043;DHT22;33988;47.992;8.820;2023-04-03T00:11:21;13.40;54.50
48043;DHT22;33988;47.992;8.820;2023-04-03T00:13:49;13.40;54.50
48043;DHT22;33988;47.992;8.820;2023-04-03T00:16:18;13.40;54.50
48043;DHT22;33988;47.992;8.820;2023-04-03T00:18:46;13.40;54.40
48043;DHT22;33988;47.992;8.820;2023-04-03T00:21:13;13.40;54.40
48043;DHT22;33988;47.992;8.820;2023-04-03T00:23:41;13.40;54.40
48043;DHT22;33988;47.992;8.820;2023-04-03T00:26:10;13.30;54.40
48043;DHT22;33988;47.992;8.820;2023-04-03T00:28:40;13.30;54.40
48043;DHT22;33988;47.992;8.820;2023-04-03T00:31:07;13.30;54.40
48043;DHT22;33988;47.992;8.820;2023-04-03T00:33:34;13.30;54.40
48043;DHT22;33988;47.992;8.820;2023-04-03T00:36:11;13.30;54.40
48043;DHT22;33988;47.992;8.820;2023-04-03T00:38:39;13.20;54.30
48043;DHT22;33988;47.992;8.820;2023-04-03T00:41:08;13.30;54.30
48043;DHT22;33988;47.992;8.820;2023-04-03T00:43:37;13.20;54.20
48043;DHT22;33988;47.992;8.820;2023-04-03T00:46:04;13.20;54.20
48043;DHT22;33988;47.992;8.820;2023-04-03T00:48:32;13.20;54.20
48043;DHT22;33988;47.992;8.820;2023-04-03T00:51:04;13.20;54.10
48043;DHT22;33988;47.992;8.820;2023-04-03T00:54:22;13.10;54.10
48043;DHT22;33988;47.992;8.820;2023-04-03T00:56:37;13.10;54.10
48043;DHT22;33988;47.992;8.820;2023-04-03T00:59:10;13.00;54.00
48043;DHT22;33988;47.992;8.820;2023-04-03T01:01:47;13.10;54.00
48043;DHT22;33988;47.992;8.820;2023-04-03T01:07:01;13.00;54.00
48043;DHT22;33988;47.992;8.820;2023-04-03T01:09:34;13.00;54.00
48043;DHT22;33988;47.992;8.820;2023-04-03T01:12:21;13.00;54.00
48043;DHT22;33988;47.992;8.820;2023-04-03T01:14:53;12.90;53.70
48043;DHT22;33988;47.992;8.820;2023-04-03T01:17:32;12.90;53.80
48043;DHT22;33988;47.992;8.820;2023-04-03T01:25:54;12.80;53.50
48043;DHT22;33988;47.992;8.820;2023-04-03T01:28:28;12.70;53.60
48043;DHT22;33988;47.992;8.820;2023-04-03T01:33:29;12.70;53.50
48043;DHT22;33988;47.992;8.820;2023-04-03T01:35:59;12.60;53.40
48043;DHT22;33988;47.992;8.820;2023-04-03T01:38:27;12.60;53.30
48043;DHT22;33988;47.992;8.820;2023-04-03T01:40:59;12.50;53.30
48043;DHT22;33988;47.992;8.820;2023-04-03T01:43:28;12.60;53.40
48043;DHT22;33988;47.992;8.820;2023-04-03T01:45:55;12.50;53.30
48043;DHT22;33988;47.992;8.820;2023-04-03T01:48:22;12.50;53.40
48043;DHT22;33988;47.992;8.820;2023-04-03T01:50:50;12.50;53.40
48043;DHT22;33988;47.992;8.820;2023-04-03T01:53:20;12.50;53.40
48043;DHT22;33988;47.992;8.820;2023-04-03T01:55:49;12.50;53.40
48043;DHT22;33988;47.992;8.820;2023-04-03T01:58:16;12.50;53.40
48043;DHT22;33988;47.992;8.820;2023-04-03T02:00:43;12.50;53.40
48043;DHT22;33988;47.992;8.820;2023-04-03T02:03:10;12.50;53.50
48043;DHT22;33988;47.992;8.820;2023-04-03T02:05:38;12.40;53.40
48043;DHT22;33988;47.992;8.820;2023-04-03T02:08:08;12.40;53.30
48043;DHT22;33988;47.992;8.820;2023-04-03T02:10:37;12.40;53.30
48043;DHT22;33988;47.992;8.820;2023-04-03T02:13:04;12.20;53.50
48043;DHT22;33988;47.992;8.820;2023-04-03T02:15:31;12.30;53.40
48043;DHT22;33988;47.992;8.820;2023-04-03T02:17:58;12.40;53.40
48043;DHT22;33988;47.992;8.820;2023-04-03T02:20:25;12.30;53.30
48043;DHT22;33988;47.992;8.820;2023-04-03T02:22:52;12.30;53.20
48043;DHT22;33988;47.992;8.820;2023-04-03T02:25:24;12.30;53.30
48043;DHT22;33988;47.992;8.820;2023-04-03T02:27:51;12.30;53.30
48043;DHT22;33988;47.992;8.820;2023-04-03T02:30:19;12.30;53.30
48043;DHT22;33988;47.992;8.820;2023-04-03T02:32:48;12.30;53.40
48043;DHT22;33988;47.992;8.820;2023-04-03T02:35:18;12.20;53.30
48043;DHT22;33988;47.992;8.820;2023-04-03T02:37:47;12.20;53.30
48043;DHT22;33988;47.992;8.820;2023-04-03T02:40:17;12.20;53.40
48043;DHT22;33988;47.992;8.820;2023-04-03T02:42:46;12.20;53.40
48043;DHT22;33988;47.992;8.820;2023-04-03T02:45:22;12.20;53.40
48043;DHT22;33988;47.992;8.820;2023-04-03T02:47:52;12.20;53.30
48043;DHT22;33988;47.992;8.820;2023-04-03T02:50:23;12.20;53.40
48043;DHT22;33988;47.992;8.820;2023-04-03T02:52:52;12.20;53.40
48043;DHT22;33988;47.992;8.820;2023-04-03T02:55:18;12.10;53.20
48043;DHT22;33988;47.992;8.820;2023-04-03T02:57:52;12.10;53.20
48043;DHT22;33988;47.992;8.820;2023-04-03T03:00:20;11.80;53.20
48043;DHT22;33988;47.992;8.820;2023-04-03T03:02:48;12.00;53.20
48043;DHT22;33988;47.992;8.820;2023-04-03T03:05:15;12.00;53.00
48043;DHT22;33988;47.992;8.820;2023-04-03T03:07:45;12.00;52.90
48043;DHT22;33988;47.992;8.820;2023-04-03T03:10:17;12.00;52.90
48043;DHT22;33988;47.992;8.820;2023-04-03T03:12:44;11.90;52.80
48043;DHT22;33988;47.992;8.820;2023-04-03T03:15:13;11.80;52.70
48043;DHT22;33988;47.992;8.820;2023-04-03T03:17:43;11.80;52.80
48043;DHT22;33988;47.992;8.820;2023-04-03T03:20:13;11.80;52.90
48043;DHT22;33988;47.992;8.820;2023-04-03T03:22:43;11.70;52.90
48043;DHT22;33988;47.992;8.820;2023-04-03T03:25:10;11.70;52.90
48043;DHT22;33988;47.992;8.820;2023-04-03T03:27:40;11.70;52.90
48043;DHT22;33988;47.992;8.820;2023-04-03T03:30:09;11.60;52.80
48043;DHT22;33988;47.992;8.820;2023-04-03T03:32:36;11.60;52.90
48043;DHT22;33988;47.992;8.820;2023-04-03T03:35:04;11.60;52.80
48043;DHT22;33988;47.992;8.820;2023-04-03T03:37:31;11.60;52.90
48043;DHT22;33988;47.992;8.820;2023-04-03T03:39:58;11.60;52.90
48043;DHT22;33988;47.992;8.820;2023-04-03T03:42:29;11.50;52.90
48043;DHT22;33988;47.992;8.820;2023-04-03T03:45:01;11.50;52.90
48043;DHT22;33988;47.992;8.820;2023-04-03T03:47:28;11.50;52.90
48043;DHT22;33988;47.992;8.820;2023-04-03T03:49:58;11.50;52.90
48043;DHT22;33988;47.992;8.820;2023-04-03T03:52:27;11.50;52.90
48043;DHT22;33988;47.992;8.820;2023-04-03T03:54:57;11.50;52.90
48043;DHT22;33988;47.992;8.820;2023-04-03T03:57:27;11.50;53.00
48043;DHT22;33988;47.992;8.820;2023-04-03T03:59:57;11.50;52.90
48043;DHT22;33988;47.992;8.820;2023-04-03T04:02:26;11.40;52.90
48043;DHT22;33988;47.992;8.820;2023-04-03T04:04:59;11.40;52.90
48043;DHT22;33988;47.992;8.820;2023-04-03T04:07:29;11.40;52.80
48043;DHT22;33988;47.992;8.820;2023-04-03T04:09:56;11.40;52.80
48043;DHT22;33988;47.992;8.820;2023-04-03T04:12:23;11.40;52.90
48043;DHT22;33988;47.992;8.820;2023-04-03T04:14:50;11.40;52.80
48043;DHT22;33988;47.992;8.820;2023-04-03T04:17:19;11.40;52.80
48043;DHT22;33988;47.992;8.820;2023-04-03T04:19:48;11.40;53.40
48043;DHT22;33988;47.992;8.820;2023-04-03T04:22:15;11.20;52.80
48043;DHT22;33988;47.992;8.820;2023-04-03T04:24:46;11.30;52.80
48043;DHT22;33988;47.992;8.820;2023-04-03T04:27:13;11.30;52.60
48043;DHT22;33988;47.992;8.820;2023-04-03T04:29:40;11.30;52.60
48043;DHT22;33988;47.992;8.820;2023-04-03T04:32:12;11.30;52.60
48043;DHT22;33988;47.992;8.820;2023-04-03T04:34:39;11.30;52.60
48043;DHT22;33988;47.992;8.820;2023-04-03T04:37:06;11.30;52.60
48043;DHT22;33988;47.992;8.820;2023-04-03T04:39:36;11.30;52.60
48043;DHT22;33988;47.992;8.820;2023-04-03T04:42:03;11.30;52.60
48043;DHT22;33988;47.992;8.820;2023-04-03T04:44:30;11.30;52.50
48043;DHT22;33988;47.992;8.820;2023-04-03T04:47:00;11.30;52.50
48043;DHT22;33988;47.992;8.820;2023-04-03T04:49:41;11.20;52.40
48043;DHT22;33988;47.992;8.820;2023-04-03T04:52:24;11.30;52.30
48043;DHT22;33988;47.992;8.820;2023-04-03T04:54:53;11.20;52.30
48043;DHT22;33988;47.992;8.820;2023-04-03T04:57:21;11.30;52.20
48043;DHT22;33988;47.992;8.820;2023-04-03T04:59:48;11.30;52.20
48043;DHT22;33988;47.992;8.820;2023-04-03T05:02:15;11.20;52.10
48043;DHT22;33988;47.992;8.820;2023-04-03T05:04:43;11.20;52.00
48043;DHT22;33988;47.992;8.820;2023-04-03T05:07:15;11.20;52.00
48043;DHT22;33988;47.992;8.820;2023-04-03T05:09:47;11.20;52.00
48043;DHT22;33988;47.992;8.820;2023-04-03T05:12:14;11.20;52.00
48043;DHT22;33988;47.992;8.820;2023-04-03T05:14:43;10.90;51.90
48043;DHT22;33988;47.992;8.820;2023-04-03T05:17:12;11.10;52.00
48043;DHT22;33988;47.992;8.820;2023-04-03T05:19:39;11.10;51.90
48043;DHT22;33988;47.992;8.820;2023-04-03T05:22:06;11.10;51.70
48043;DHT22;33988;47.992;8.820;2023-04-03T05:24:38;11.10;51.50
48043;DHT22;33988;47.992;8.820;2023-04-03T05:27:07;11.10;51.40
48043;DHT22;33988;47.992;8.820;2023-04-03T05:29:34;11.10;51.50
48043;DHT22;33988;47.992;8.820;2023-04-03T05:32:03;11.00;51.30
48043;DHT22;33988;47.992;8.820;2023-04-03T05:34:30;11.00;51.20
48043;DHT22;33988;47.992;8.820;2023-04-03T05:37:00;11.00;51.10
48043;DHT22;33988;47.992;8.820;2023-04-03T05:39:27;11.10;51.10
48043;DHT22;33988;47.992;8.820;2023-04-03T05:41:59;11.00;50.80
48043;DHT22;33988;47.992;8.820;2023-04-03T05:44:26;10.80;50.60
48043;DHT22;33988;47.992;8.820;2023-04-03T05:46:55;10.90;50.90
48043;DHT22;33988;47.992;8.820;2023-04-03T05:49:22;11.00;50.80
48043;DHT22;33988;47.992;8.820;2023-04-03T05:51:51;10.90;50.60
48043;DHT22;33988;47.992;8.820;2023-04-03T05:54:32;10.90;50.50
48043;DHT22;33988;47.992;8.820;2023-04-03T05:57:01;10.90;50.30
48043;DHT22;33988;47.992;8.820;2023-04-03T05:59:33;10.80;50.10
48043;DHT22;33988;47.992;8.820;2023-04-03T06:02:00;10.80;50.20
48043;DHT22;33988;47.992;8.820;2023-04-03T06:04:27;10.70;50.10
48043;DHT22;33988;47.992;8.820;2023-04-03T06:06:58;10.70;50.20
48043;DHT22;33988;47.992;8.820;2023-04-03T06:09:29;10.70;50.30
48043;DHT22;33988;47.992;8.820;2023-04-03T06:11:59;10.70;50.40
48043;DHT22;33988;47.992;8.820;2023-04-03T06:14:28;10.70;50.20
48043;DHT22;33988;47.992;8.820;2023-04-03T06:16:55;10.70;50.20
48043;DHT22;33988;47.992;8.820;2023-04-03T06:19:26;10.70;50.20
48043;DHT22;33988;47.992;8.820;2023-04-03T06:21:52;10.70;50.20
48043;DHT22;33988;47.992;8.820;2023-04-03T06:24:20;10.80;50.20
48043;DHT22;33988;47.992;8.820;2023-04-03T06:26:48;10.80;50.30
48043;DHT22;33988;47.992;8.820;2023-04-03T06:29:18;10.80;50.30
48043;DHT22;33988;47.992;8.820;2023-04-03T06:31:48;10.80;50.30
48043;DHT22;33988;47.992;8.820;2023-04-03T06:34:16;10.80;50.30
48043;DHT22;33988;47.992;8.820;2023-04-03T06:36:47;10.80;50.40
48043;DHT22;33988;47.992;8.820;2023-04-03T06:39:21;10.80;50.40
48043;DHT22;33988;47.992;8.820;2023-04-03T06:41:56;10.80;50.30
48043;DHT22;33988;47.992;8.820;2023-04-03T06:44:23;10.90;50.40
48043;DHT22;33988;47.992;8.820;2023-04-03T06:46:52;10.90;50.30
48043;DHT22;33988;47.992;8.820;2023-04-03T06:49:23;10.90;50.20
48043;DHT22;33988;47.992;8.820;2023-04-03T06:51:52;10.90;50.20
48043;DHT22;33988;47.992;8.820;2023-04-03T06:54:19;10.90;50.20
48043;DHT22;33988;47.992;8.820;2023-04-03T06:56:46;10.90;50.20
48043;DHT22;33988;47.992;8.820;2023-04-03T06:59:14;10.90;50.20
48043;DHT22;33988;47.992;8.820;2023-04-03T07:01:42;10.90;50.20
48043;DHT22;33988;47.992;8.820;2023-04-03T07:04:09;10.90;50.10
48043;DHT22;33988;47.992;8.820;2023-04-03T07:06:36;10.90;50.20
48043;DHT22;33988;47.992;8.820;2023-04-03T07:09:03;10.90;50.20
48043;DHT22;33988;47.992;8.820;2023-04-03T07:11:36;10.90;50.20
48043;DHT22;33988;47.992;8.820;2023-04-03T07:14:03;10.90;50.10
48043;DHT22;33988;47.992;8.820;2023-04-03T07:16:35;10.90;50.20
48043;DHT22;33988;47.992;8.820;2023-04-03T07:19:08;10.90;50.10
48043;DHT22;33988;47.992;8.820;2023-04-03T07:21:35;11.00;50.10
48043;DHT22;33988;47.992;8.820;2023-04-03T07:24:04;11.00;50.00
48043;DHT22;33988;47.992;8.820;2023-04-03T07:26:39;11.00;50.00
48043;DHT22;33988;47.992;8.820;2023-04-03T07:29:11;11.00;50.00
48043;DHT22;33988;47.992;8.820;2023-04-03T07:31:41;11.10;50.00
48043;DHT22;33988;47.992;8.820;2023-04-03T07:34:11;11.10;49.90
48043;DHT22;33988;47.992;8.820;2023-04-03T07:36:41;11.10;49.90
48043;DHT22;33988;47.992;8.820;2023-04-03T07:39:08;11.10;49.90
48043;DHT22;33988;47.992;8.820;2023-04-03T07:41:38;11.20;50.00
48043;DHT22;33988;47.992;8.820;2023-04-03T07:44:09;11.20;49.80
48043;DHT22;33988;47.992;8.820;2023-04-03T07:46:37;11.20;49.60
48043;DHT22;33988;47.992;8.820;2023-04-03T07:49:09;11.20;49.60
48043;DHT22;33988;47.992;8.820;2023-04-03T07:51:36;11.20;49.60
48043;DHT22;33988;47.992;8.820;2023-04-03T07:54:03;11.20;49.50
48043;DHT22;33988;47.992;8.820;2023-04-03T07:56:30;11.30;49.50
48043;DHT22;33988;47.992;8.820;2023-04-03T07:59:00;11.30;49.60
48043;DHT22;33988;47.992;8.820;2023-04-03T08:01:33;11.30;49.50
48043;DHT22;33988;47.992;8.820;2023-04-03T08:04:02;11.30;49.40
48043;DHT22;33988;47.992;8.820;2023-04-03T08:06:38;11.40;49.20
48043;DHT22;33988;47.992;8.820;2023-04-03T08:09:12;11.40;49.10
48043;DHT22;33988;47.992;8.820;2023-04-03T08:11:44;11.40;49.10
48043;DHT22;33988;47.992;8.820;2023-04-03T08:14:12;11.40;49.00
48043;DHT22;33988;47.992;8.820;2023-04-03T08:16:45;11.40;49.00
48043;DHT22;33988;47.992;8.820;2023-04-03T08:19:15;11.40;49.00
48043;DHT22;33988;47.992;8.820;2023-04-03T08:21:53;11.40;48.90
48043;DHT22;33988;47.992;8.820;2023-04-03T08:24:24;11.40;49.00
48043;DHT22;33988;47.992;8.820;2023-04-03T08:26:54;11.40;48.90
48043;DHT22;33988;47.992;8.820;2023-04-03T08:29:24;11.40;48.90
48043;DHT22;33988;47.992;8.820;2023-04-03T08:31:54;11.50;49.00
48043;DHT22;33988;47.992;8.820;2023-04-03T08:34:21;11.50;48.90
48043;DHT22;33988;47.992;8.820;2023-04-03T08:36:51;11.50;48.90
48043;DHT22;33988;47.992;8.820;2023-04-03T08:39:18;11.50;48.90
48043;DHT22;33988;47.992;8.820;2023-04-03T08:41:47;11.50;49.00
48043;DHT22;33988;47.992;8.820;2023-04-03T08:44:39;11.60;49.00
48043;DHT22;33988;47.992;8.820;2023-04-03T08:47:25;11.60;49.00
48043;DHT22;33988;47.992;8.820;2023-04-03T08:50:02;11.60;49.00
48043;DHT22;33988;47.992;8.820;2023-04-03T08:52:47;11.60;49.00
48043;DHT22;33988;47.992;8.820;2023-04-03T08:55:39;11.60;49.00
48043;DHT22;33988;47.992;8.820;2023-04-03T08:58:14;11.60;48.60
48043;DHT22;33988;47.992;8.820;2023-04-03T09:03:42;11.60;48.80
48043;DHT22;33988;47.992;8.820;2023-04-03T09:06:21;11.60;48.90
48043;DHT22;33988;47.992;8.820;2023-04-03T09:15:02;11.60;48.90
48043;DHT22;33988;47.992;8.820;2023-04-03T09:17:41;11.70;49.00
48043;DHT22;33988;47.992;8.820;2023-04-03T09:20:53;11.70;49.00
48043;DHT22;33988;47.992;8.820;2023-04-03T09:23:40;11.70;49.00
48043;DHT22;33988;47.992;8.820;2023-04-03T09:26:23;11.70;49.10
48043;DHT22;33988;47.992;8.820;2023-04-03T09:28:59;11.80;49.30
48043;DHT22;33988;47.992;8.820;2023-04-03T09:31:42;11.90;48.60
48043;DHT22;33988;47.992;8.820;2023-04-03T09:36:55;11.90;49.00
48043;DHT22;33988;47.992;8.820;2023-04-03T09:39:28;11.80;49.10
48043;DHT22;33988;47.992;8.820;2023-04-03T09:42:25;12.00;49.20
48043;DHT22;33988;47.992;8.820;2023-04-03T09:44:56;12.00;48.70
48043;DHT22;33988;47.992;8.820;2023-04-03T09:47:35;12.10;49.00
48043;DHT22;33988;47.992;8.820;2023-04-03T09:52:44;12.20;48.80
48043;DHT22;33988;47.992;8.820;2023-04-03T09:55:18;12.20;48.80
48043;DHT22;33988;47.992;8.820;2023-04-03T09:57:48;12.30;48.90
48043;DHT22;33988;47.992;8.820;2023-04-03T10:03:09;12.30;48.70
48043;DHT22;33988;47.992;8.820;2023-04-03T10:05:51;12.40;48.70
48043;DHT22;33988;47.992;8.820;2023-04-03T10:08:25;12.40;48.50
48043;DHT22;33988;47.992;8.820;2023-04-03T10:16:32;12.40;48.10
48043;DHT22;33988;47.992;8.820;2023-04-03T10:36:47;12.40;48.30
48043;DHT22;33988;47.992;8.820;2023-04-03T10:53:49;12.20;48.20
48043;DHT22;33988;47.992;8.820;2023-04-03T10:56:57;12.30;48.20
48043;DHT22;33988;47.992;8.820;2023-04-03T11:02:31;12.40;47.90
48043;DHT22;33988;47.992;8.820;2023-04-03T11:07:57;12.40;47.80
48043;DHT22;33988;47.992;8.820;2023-04-03T11:10:42;12.30;47.80
48043;DHT22;33988;47.992;8.820;2023-04-03T11:13:21;12.30;47.60
48043;DHT22;33988;47.992;8.820;2023-04-03T11:15:53;12.30;47.60
48043;DHT22;33988;47.992;8.820;2023-04-03T11:18:35;12.30;47.80
48043;DHT22;33988;47.992;8.820;2023-04-03T11:21:24;12.10;47.90
48043;DHT22;33988;47.992;8.820;2023-04-03T11:23:59;12.30;48.00
48043;DHT22;33988;47.992;8.820;2023-04-03T11:26:31;12.40;48.00
48043;DHT22;33988;47.992;8.820;2023-04-03T11:29:06;12.40;48.00
48043;DHT22;33988;47.992;8.820;2023-04-03T11:35:05;12.40;47.50
48043;DHT22;33988;47.992;8.820;2023-04-03T11:37:44;12.50;47.60
48043;DHT22;33988;47.992;8.820;2023-04-03T11:42:48;12.60;47.50
48043;DHT22;33988;47.992;8.820;2023-04-03T11:47:57;12.60;47.40
48043;DHT22;33988;47.992;8.820;2023-04-03T11:58:31;12.80;47.30
48043;DHT22;33988;47.992;8.820;2023-04-03T12:01:05;12.80;47.10
48043;DHT22;33988;47.992;8.820;2023-04-03T12:16:19;12.90;45.90
48043;DHT22;33988;47.992;8.820;2023-04-03T12:21:22;13.00;45.90
48043;DHT22;33988;47.992;8.820;2023-04-03T12:29:16;13.00;45.90
48043;DHT22;33988;47.992;8.820;2023-04-03T12:51:21;12.90;45.30
48043;DHT22;33988;47.992;8.820;2023-04-03T12:53:52;12.80;45.00
48043;DHT22;33988;47.992;8.820;2023-04-03T12:56:27;12.80;45.00
48043;DHT22;33988;47.992;8.820;2023-04-03T12:59:26;12.80;45.10
48043;DHT22;33988;47.992;8.820;2023-04-03T13:02:00;12.70;44.80
48043;DHT22;33988;47.992;8.820;2023-04-03T13:04:29;12.70;45.10
48043;DHT22;33988;47.992;8.820;2023-04-03T13:06:57;12.70;45.30
48043;DHT22;33988;47.992;8.820;2023-04-03T13:09:29;12.80;45.40
48043;DHT22;33988;47.992;8.820;2023-04-03T13:12:23;12.70;45.10
48043;DHT22;33988;47.992;8.820;2023-04-03T13:14:57;12.70;44.70
48043;DHT22;33988;47.992;8.820;2023-04-03T13:17:38;12.70;44.90
48043;DHT22;33988;47.992;8.820;2023-04-03T13:20:17;12.70;44.80
48043;DHT22;33988;47.992;8.820;2023-04-03T13:23:07;12.70;44.90
48043;DHT22;33988;47.992;8.820;2023-04-03T13:25:43;12.70;44.90
48043;DHT22;33988;47.992;8.820;2023-04-03T13:28:14;12.80;44.90
48043;DHT22;33988;47.992;8.820;2023-04-03T13:31:08;12.80;44.90
48043;DHT22;33988;47.992;8.820;2023-04-03T13:33:53;12.80;44.50
48043;DHT22;33988;47.992;8.820;2023-04-03T13:36:33;12.80;44.80
48043;DHT22;33988;47.992;8.820;2023-04-03T13:41:44;12.80;44.70
48043;DHT22;33988;47.992;8.820;2023-04-03T13:46:56;12.60;44.80
48043;DHT22;33988;47.992;8.820;2023-04-03T13:49:34;12.70;45.00
48043;DHT22;33988;47.992;8.820;2023-04-03T13:52:28;12.80;45.00
48043;DHT22;33988;47.992;8.820;2023-04-03T13:58:20;12.70;44.40
48043;DHT22;33988;47.992;8.820;2023-04-03T14:06:00;12.80;44.50
48043;DHT22;33988;47.992;8.820;2023-04-03T14:08:31;12.70;44.50
48043;DHT22;33988;47.992;8.820;2023-04-03T14:11:16;12.70;44.50
48043;DHT22;33988;47.992;8.820;2023-04-03T14:13:46;12.70;44.50
48043;DHT22;33988;47.992;8.820;2023-04-03T14:16:20;12.70;44.50
48043;DHT22;33988;47.992;8.820;2023-04-03T14:18:52;12.70;44.50
48043;DHT22;33988;47.992;8.820;2023-04-03T14:21:20;12.70;44.50
48043;DHT22;33988;47.992;8.820;2023-04-03T14:23:52;12.70;44.40
48043;DHT22;33988;47.992;8.820;2023-04-03T14:26:22;12.80;44.50
48043;DHT22;33988;47.992;8.820;2023-04-03T14:28:54;12.80;44.40
48043;DHT22;33988;47.992;8.820;2023-04-03T14:31:24;12.80;44.30
48043;DHT22;33988;47.992;8.820;2023-04-03T14:33:53;12.80;44.20
48043;DHT22;33988;47.992;8.820;2023-04-03T14:36:28;12.70;44.00
48043;DHT22;33988;47.992;8.820;2023-04-03T14:38:57;12.70;43.70
48043;DHT22;33988;47.992;8.820;2023-04-03T14:41:25;12.70;43.80
48043;DHT22;33988;47.992;8.820;2023-04-03T14:43:53;12.70;43.80
48043;DHT22;33988;47.992;8.820;2023-04-03T14:46:32;12.70;43.80
48043;DHT22;33988;47.992;8.820;2023-04-03T14:49:24;12.60;43.50
48043;DHT22;33988;47.992;8.820;2023-04-03T14:51:55;12.60;43.80
48043;DHT22;33988;47.992;8.820;2023-04-03T14:54:23;12.70;43.80
48043;DHT22;33988;47.992;8.820;2023-04-03T14:56:57;12.70;43.90
48043;DHT22;33988;47.992;8.820;2023-04-03T14:59:25;12.70;43.80
48043;DHT22;33988;47.992;8.820;2023-04-03T15:01:53;12.70;43.70
48043;DHT22;33988;47.992;8.820;2023-04-03T15:04:24;12.70;43.70
48043;DHT22;33988;47.992;8.820;2023-04-03T15:06:52;12.80;43.70
48043;DHT22;33988;47.992;8.820;2023-04-03T15:09:23;12.70;43.70
48043;DHT22;33988;47.992;8.820;2023-04-03T15:11:54;12.80;43.50
48043;DHT22;33988;47.992;8.820;2023-04-03T15:14:22;12.80;43.40
48043;DHT22;33988;47.992;8.820;2023-04-03T15:17:15;12.80;43.40
48043;DHT22;33988;47.992;8.820;2023-04-03T15:19:46;12.70;43.10
48043;DHT22;33988;47.992;8.820;2023-04-03T15:22:18;12.70;43.30
48043;DHT22;33988;47.992;8.820;2023-04-03T15:24:46;12.70;43.20
48043;DHT22;33988;47.992;8.820;2023-04-03T15:27:13;12.70;43.40
48043;DHT22;33988;47.992;8.820;2023-04-03T15:29:44;12.70;43.40
48043;DHT22;33988;47.992;8.820;2023-04-03T15:32:12;12.70;43.50
48043;DHT22;33988;47.992;8.820;2023-04-03T15:34:40;12.70;43.40
48043;DHT22;33988;47.992;8.820;2023-04-03T15:37:08;12.70;43.40
48043;DHT22;33988;47.992;8.820;2023-04-03T15:39:34;12.70;43.40
48043;DHT22;33988;47.992;8.820;2023-04-03T15:42:04;12.70;43.30
48043;DHT22;33988;47.992;8.820;2023-04-03T15:44:33;12.60;43.30
48043;DHT22;33988;47.992;8.820;2023-04-03T15:47:01;12.70;43.50
48043;DHT22;33988;47.992;8.820;2023-04-03T15:49:30;12.70;43.40
48043;DHT22;33988;47.992;8.820;2023-04-03T15:51:59;12.70;43.40
48043;DHT22;33988;47.992;8.820;2023-04-03T15:54:26;12.70;43.40
48043;DHT22;33988;47.992;8.820;2023-04-03T15:56:53;12.70;43.50
48043;DHT22;33988;47.992;8.820;2023-04-03T15:59:25;12.70;43.50
48043;DHT22;33988;47.992;8.820;2023-04-03T16:01:52;12.70;43.50
48043;DHT22;33988;47.992;8.820;2023-04-03T16:04:22;12.70;43.60
48043;DHT22;33988;47.992;8.820;2023-04-03T16:06:51;12.70;43.60
48043;DHT22;33988;47.992;8.820;2023-04-03T16:09:21;12.70;43.50
48043;DHT22;33988;47.992;8.820;2023-04-03T16:11:48;12.70;43.40
48043;DHT22;33988;47.992;8.820;2023-04-03T16:14:15;12.70;43.40
48043;DHT22;33988;47.992;8.820;2023-04-03T16:16:44;12.70;43.30
48043;DHT22;33988;47.992;8.820;2023-04-03T16:19:11;12.70;43.90
48043;DHT22;33988;47.992;8.820;2023-04-03T16:21:42;12.70;43.50
48043;DHT22;33988;47.992;8.820;2023-04-03T16:24:09;12.60;42.90
48043;DHT22;33988;47.992;8.820;2023-04-03T16:26:40;12.60;42.90
48043;DHT22;33988;47.992;8.820;2023-04-03T16:29:07;12.30;42.90
48043;DHT22;33988;47.992;8.820;2023-04-03T16:31:34;12.50;43.20
48043;DHT22;33988;47.992;8.820;2023-04-03T16:34:01;12.50;43.00
48043;DHT22;33988;47.992;8.820;2023-04-03T16:36:29;12.40;42.80
48043;DHT22;33988;47.992;8.820;2023-04-03T16:38:58;12.40;42.80
48043;DHT22;33988;47.992;8.820;2023-04-03T16:41:27;12.40;42.90
48043;DHT22;33988;47.992;8.820;2023-04-03T16:43:57;12.40;42.90
48043;DHT22;33988;47.992;8.820;2023-04-03T16:46:24;12.30;42.80
48043;DHT22;33988;47.992;8.820;2023-04-03T16:48:51;12.40;42.90
48043;DHT22;33988;47.992;8.820;2023-04-03T16:51:20;12.40;42.90
48043;DHT22;33988;47.992;8.820;2023-04-03T16:53:47;12.40;42.80
48043;DHT22;33988;47.992;8.820;2023-04-03T16:56:14;12.40;42.70
48043;DHT22;33988;47.992;8.820;2023-04-03T16:58:41;12.40;42.80
48043;DHT22;33988;47.992;8.820;2023-04-03T17:01:15;12.40;42.80
48043;DHT22;33988;47.992;8.820;2023-04-03T17:03:44;12.40;42.50
48043;DHT22;33988;47.992;8.820;2023-04-03T17:06:16;12.40;42.50
48043;DHT22;33988;47.992;8.820;2023-04-03T17:08:47;12.40;42.50
48043;DHT22;33988;47.992;8.820;2023-04-03T17:11:18;12.40;42.40
48043;DHT22;33988;47.992;8.820;2023-04-03T17:13:45;12.40;42.40
48043;DHT22;33988;47.992;8.820;2023-04-03T17:16:14;12.40;42.60
48043;DHT22;33988;47.992;8.820;2023-04-03T17:18:43;12.40;42.40
48043;DHT22;33988;47.992;8.820;2023-04-03T17:21:11;12.40;43.10
48043;DHT22;33988;47.992;8.820;2023-04-03T17:23:41;12.40;42.50
48043;DHT22;33988;47.992;8.820;2023-04-03T17:26:11;12.40;42.40
48043;DHT22;33988;47.992;8.820;2023-04-03T17:28:41;12.40;42.50
48043;DHT22;33988;47.992;8.820;2023-04-03T17:31:14;12.40;42.70
48043;DHT22;33988;47.992;8.820;2023-04-03T17:33:41;12.40;42.70
48043;DHT22;33988;47.992;8.820;2023-04-03T17:36:10;12.40;42.60
48043;DHT22;33988;47.992;8.820;2023-04-03T17:38:38;12.40;42.60
48043;DHT22;33988;47.992;8.820;2023-04-03T17:41:06;12.40;42.60
48043;DHT22;33988;47.992;8.820;2023-04-03T17:43:39;12.40;42.60
48043;DHT22;33988;47.992;8.820;2023-04-03T17:46:07;12.40;42.60
48043;DHT22;33988;47.992;8.820;2023-04-03T17:48:37;12.10;42.70
48043;DHT22;33988;47.992;8.820;2023-04-03T17:51:08;12.30;42.80
48043;DHT22;33988;47.992;8.820;2023-04-03T17:53:37;12.30;42.60
48043;DHT22;33988;47.992;8.820;2023-04-03T17:56:09;12.20;42.60
48043;DHT22;33988;47.992;8.820;2023-04-03T17:58:38;12.20;42.60
48043;DHT22;33988;47.992;8.820;2023-04-03T18:01:32;12.20;42.70
48043;DHT22;33988;47.992;8.820;2023-04-03T18:04:05;12.00;42.50
48043;DHT22;33988;47.992;8.820;2023-04-03T18:06:39;12.10;43.50
48043;DHT22;33988;47.992;8.820;2023-04-03T18:09:14;12.10;42.80
48043;DHT22;33988;47.992;8.820;2023-04-03T18:11:45;12.10;42.90
48043;DHT22;33988;47.992;8.820;2023-04-03T18:14:18;12.10;42.80
48043;DHT22;33988;47.992;8.820;2023-04-03T18:16:48;12.10;42.80
48043;DHT22;33988;47.992;8.820;2023-04-03T18:19:15;12.10;42.80